Time;durP1;ratioP1;P1;durP2;ratioP2;P2;SDS_P1;SDS_P2;PMS_P1;PMS_P2;Temp;Humidity;BMP_temperature;BMP_pressure;BME280_temperature;BME280_humidity;BME280_pressure;Samples;Min_cycle;Max_cycle;Signal;HPM_P1;HPM_P2
2023/03/04 00:00:46;;;;;;;30.92;13.00;;;;;;;-2.45;100.00;98702.13;2551452;29;20063;-83
2023/03/04 00:02:10;;;;;;;39.47;15.00;;;;;;;-2.43;100.00;98697.06;2552228;29;20039;-84
2023/03/04 00:03:25;;;;;;;40.47;14.10;;;;;;;-2.43;100.00;98700.47;2553126;29;20090;-84
2023/03/04 00:04:41;;;;;;;42.47;15.85;;;;;;;-2.47;100.00;98693.53;2549964;29;20050;-83
2023/03/04 00:05:56;;;;;;;37.90;13.85;;;;;;;-2.62;100.00;98698.22;2551331;29;20118;-84
2023/03/04 00:07:15;;;;;;;38.40;13.95;;;;;;;-2.79;100.00;98698.59;2552834;29;20055;-83
2023/03/04 00:08:31;;;;;;;44.13;15.30;;;;;;;-2.90;100.00;98689.72;2551293;29;20062;-86
2023/03/04 00:09:46;;;;;;;39.58;14.68;;;;;;;-2.85;100.00;98689.03;2551165;29;20470;-84
2023/03/04 00:11:02;;;;;;;44.42;14.93;;;;;;;-3.10;100.00;98684.84;2550261;29;20064;-83
2023/03/04 00:12:18;;;;;;;40.92;15.02;;;;;;;-3.22;100.00;98684.47;2552175;29;20058;-83
2023/03/04 00:13:33;;;;;;;45.15;16.23;;;;;;;-3.26;100.00;98689.50;2550244;29;20513;-83
2023/03/04 00:14:49;;;;;;;56.13;18.25;;;;;;;-3.24;100.00;98694.69;2551630;28;20107;-86
2023/03/04 00:16:05;;;;;;;72.88;21.00;;;;;;;-3.22;100.00;98692.16;2550345;29;20059;-84
2023/03/04 00:17:20;;;;;;;74.93;21.25;;;;;;;-3.05;100.00;98690.13;2552653;29;20052;-84
2023/03/04 00:18:36;;;;;;;75.00;23.15;;;;;;;-3.11;100.00;98693.34;2552610;29;20098;-87
2023/03/04 00:19:52;;;;;;;71.65;23.30;;;;;;;-3.07;100.00;98684.97;2551222;29;20411;-84
2023/03/04 00:21:07;;;;;;;60.05;19.50;;;;;;;-3.27;100.00;98685.19;2551408;29;20143;-84
2023/03/04 00:22:23;;;;;;;58.28;19.58;;;;;;;-3.39;100.00;98687.38;2551438;29;20470;-83
2023/03/04 00:23:40;;;;;;;54.67;17.25;;;;;;;-3.46;100.00;98681.19;2550453;29;20052;-83
2023/03/04 00:24:55;;;;;;;46.05;15.82;;;;;;;-3.61;100.00;98685.81;2551688;28;20506;-83
2023/03/04 00:26:12;;;;;;;35.28;13.07;;;;;;;-3.81;100.00;98685.16;2550835;29;20070;-83
2023/03/04 00:27:27;;;;;;;36.13;13.30;;;;;;;-3.78;100.00;98687.81;2550916;29;20043;-83
2023/03/04 00:28:43;;;;;;;27.80;12.98;;;;;;;-3.74;100.00;98685.41;2551726;29;20069;-82
2023/03/04 00:29:59;;;;;;;27.73;11.02;;;;;;;-3.48;100.00;98677.72;2551715;29;20047;-83
2023/03/04 00:31:14;;;;;;;29.50;11.77;;;;;;;-3.82;100.00;98679.19;2550533;29;20506;-84
2023/03/04 00:32:30;;;;;;;35.25;11.70;;;;;;;-3.92;100.00;98677.97;2551016;29;20625;-83
2023/03/04 00:33:45;;;;;;;28.23;10.15;;;;;;;-3.80;100.00;98685.22;2551517;29;21102;-83
2023/03/04 00:35:01;;;;;;;23.70;10.98;;;;;;;-3.64;100.00;98676.34;2551473;29;20426;-83
2023/03/04 00:36:17;;;;;;;26.10;9.60;;;;;;;-3.37;100.00;98674.63;2552079;28;20051;-83
2023/03/04 00:37:32;;;;;;;28.83;10.05;;;;;;;-3.49;100.00;98675.97;2550946;29;20056;-83
2023/03/04 00:38:48;;;;;;;28.58;11.05;;;;;;;-3.39;100.00;98673.72;2551772;29;20138;-82
2023/03/04 00:40:04;;;;;;;31.05;11.00;;;;;;;-3.28;100.00;98675.78;2551887;28;20077;-82
2023/03/04 00:41:20;;;;;;;28.58;11.63;;;;;;;-3.28;100.00;98673.22;2550585;29;20070;-84
2023/03/04 00:42:36;;;;;;;27.20;11.20;;;;;;;-3.30;100.00;98671.44;2551329;29;20056;-83
2023/03/04 00:43:51;;;;;;;28.83;10.95;;;;;;;-3.41;100.00;98673.66;2552501;28;20481;-87
2023/03/04 00:45:08;;;;;;;28.38;11.98;;;;;;;-3.38;100.00;98673.75;2550602;29;20494;-84
2023/03/04 00:46:24;;;;;;;30.50;12.02;;;;;;;-3.23;100.00;98672.50;2551322;29;20055;-83
2023/03/04 00:47:39;;;;;;;25.27;10.57;;;;;;;-3.10;100.00;98676.31;2552570;29;20051;-83
2023/03/04 00:48:55;;;;;;;30.05;10.98;;;;;;;-3.56;100.00;98676.63;2551247;29;20051;-82
2023/03/04 00:50:11;;;;;;;28.75;10.52;;;;;;;-3.60;100.00;98672.19;2550003;29;20050;-83
2023/03/04 00:51:26;;;;;;;32.17;11.07;;;;;;;-3.67;100.00;98675.41;2550436;29;20086;-85
2023/03/04 00:52:42;;;;;;;25.92;9.25;;;;;;;-3.63;100.00;98673.00;2550909;29;20085;-85
2023/03/04 00:53:58;;;;;;;25.58;10.07;;;;;;;-3.56;100.00;98674.06;2550067;29;20055;-83
2023/03/04 00:55:13;;;;;;;24.25;9.85;;;;;;;-3.53;100.00;98663.03;2551821;29;20050;-83
2023/03/04 00:56:29;;;;;;;30.40;11.68;;;;;;;-3.52;100.00;98669.88;2552009;29;20105;-83
2023/03/04 00:57:44;;;;;;;29.75;11.20;;;;;;;-3.69;100.00;98672.78;2551211;29;20510;-82
2023/03/04 00:59:00;;;;;;;24.55;10.48;;;;;;;-3.73;100.00;98665.81;2551278;29;20051;-83
2023/03/04 01:00:16;;;;;;;25.33;10.00;;;;;;;-3.78;100.00;98670.78;2550080;29;20063;-82
2023/03/04 01:01:32;;;;;;;28.38;11.32;;;;;;;-3.81;100.00;98673.25;2552461;29;20048;-83
2023/03/04 01:02:47;;;;;;;28.70;11.10;;;;;;;-3.78;100.00;98670.78;2552224;29;20055;-84
2023/03/04 01:04:03;;;;;;;31.30;10.70;;;;;;;-3.68;100.00;98669.41;2552254;28;20098;-83
2023/03/04 01:05:19;;;;;;;32.95;11.77;;;;;;;-3.91;100.00;98666.97;2551991;29;20478;-82
2023/03/04 01:06:34;;;;;;;30.55;11.70;;;;;;;-3.86;100.00;98664.53;2550578;28;20356;-82
2023/03/04 01:07:50;;;;;;;30.52;11.38;;;;;;;-3.75;100.00;98657.22;2549408;29;20506;-82
2023/03/04 01:09:07;;;;;;;29.17;11.48;;;;;;;-3.65;100.00;98660.97;2552024;29;20102;-84
2023/03/04 01:10:22;;;;;;;27.52;11.52;;;;;;;-3.59;100.00;98661.13;2550506;29;20572;-85
2023/03/04 01:11:38;;;;;;;30.90;12.68;;;;;;;-3.58;100.00;98660.31;2550438;29;20059;-83
2023/03/04 01:12:54;;;;;;;26.42;12.20;;;;;;;-3.61;100.00;98655.09;2550959;29;20059;-83
2023/03/04 01:14:09;;;;;;;26.67;11.40;;;;;;;-3.67;100.00;98650.66;2551135;29;20043;-83
2023/03/04 01:15:25;;;;;;;28.90;11.23;;;;;;;-3.56;100.00;98654.44;2550574;29;20106;-82
2023/03/04 01:16:40;;;;;;;28.98;11.43;;;;;;;-3.49;100.00;98649.50;2551836;28;20301;-87
2023/03/04 01:17:56;;;;;;;31.42;11.82;;;;;;;-3.49;100.00;98644.38;2551385;29;20048;-86
2023/03/04 01:19:12;;;;;;;26.92;10.30;;;;;;;-3.67;100.00;98645.53;2551017;29;20056;-84
2023/03/04 01:20:28;;;;;;;24.77;11.35;;;;;;;-3.59;100.00;98640.66;2550899;29;20062;-83
2023/03/04 01:21:43;;;;;;;28.88;12.27;;;;;;;-3.59;100.00;98645.78;2551443;28;20070;-82
2023/03/04 01:22:59;;;;;;;32.45;12.20;;;;;;;-3.42;100.00;98644.66;2549849;29;20110;-83
2023/03/04 01:24:15;;;;;;;28.38;12.68;;;;;;;-3.45;100.00;98638.56;2550732;29;20573;-82
2023/03/04 01:25:30;;;;;;;34.08;13.02;;;;;;;-3.41;100.00;98642.94;2550967;29;20050;-83
2023/03/04 01:26:46;;;;;;;35.63;13.20;;;;;;;-3.43;100.00;98639.47;2549798;28;20069;-82
2023/03/04 01:28:02;;;;;;;31.45;12.80;;;;;;;-3.55;100.00;98640.81;2550619;29;20059;-84
2023/03/04 01:29:18;;;;;;;32.42;13.10;;;;;;;-3.75;100.00;98641.88;2551106;29;20106;-83
2023/03/04 01:30:33;;;;;;;35.75;12.85;;;;;;;-3.87;100.00;98635.53;2551220;29;20083;-83
2023/03/04 01:31:49;;;;;;;38.45;12.90;;;;;;;-3.86;100.00;98637.28;2550221;29;20047;-83
2023/03/04 01:33:05;;;;;;;33.70;13.13;;;;;;;-3.81;100.00;98637.44;2551527;29;20075;-83
2023/03/04 01:34:20;;;;;;;38.25;13.85;;;;;;;-3.79;100.00;98634.91;2551466;28;20043;-83
2023/03/04 01:35:36;;;;;;;37.08;14.38;;;;;;;-3.95;100.00;98639.53;2551491;28;20244;-82
2023/03/04 01:36:52;;;;;;;40.28;15.48;;;;;;;-3.99;100.00;98637.69;2550189;29;20391;-83
2023/03/04 01:38:07;;;;;;;38.50;14.52;;;;;;;-4.00;100.00;98631.69;2550372;29;20075;-84
2023/03/04 01:39:23;;;;;;;39.67;15.00;;;;;;;-3.97;100.00;98633.50;2549784;29;20106;-82
2023/03/04 01:40:39;;;;;;;38.85;14.35;;;;;;;-4.08;100.00;98632.25;2551642;29;20133;-83
2023/03/04 01:41:54;;;;;;;34.90;13.85;;;;;;;-4.06;100.00;98633.19;2550680;29;20055;-84
2023/03/04 01:43:18;;;;;;;38.22;15.13;;;;;;;-4.08;100.00;98632.25;2551651;29;20138;-83
2023/03/04 01:44:34;;;;;;;42.67;15.18;;;;;;;-4.06;100.00;98636.63;2551097;29;20052;-83
2023/03/04 01:45:51;;;;;;;42.10;16.05;;;;;;;-4.12;100.00;98627.03;2551518;29;20158;-87
2023/03/04 01:47:08;;;;;;;37.20;14.68;;;;;;;-4.24;100.00;98628.34;2551520;28;20058;-83
2023/03/04 01:48:28;;;;;;;40.78;15.40;;;;;;;-4.22;100.00;98624.13;2550573;29;20142;-85
2023/03/04 01:49:47;;;;;;;40.45;15.07;;;;;;;-4.18;100.00;98620.84;2550454;29;20129;-82
2023/03/04 01:51:05;;;;;;;39.80;16.42;;;;;;;-4.21;100.00;98621.63;2551010;29;20052;-84
2023/03/04 01:52:20;;;;;;;36.25;14.23;;;;;;;-4.23;100.00;98610.47;2551597;29;20051;-83
2023/03/04 01:53:36;;;;;;;38.63;14.88;;;;;;;-4.05;100.00;98609.34;2550481;28;20170;-86
2023/03/04 01:54:52;;;;;;;35.45;14.25;;;;;;;-4.17;100.00;98608.13;2550965;29;20079;-83
2023/03/04 01:56:17;;;;;;;35.03;13.68;;;;;;;-4.22;100.00;98604.53;2550734;29;20047;-82
2023/03/04 01:57:34;;;;;;;39.42;14.85;;;;;;;-4.21;100.00;98607.97;2550340;29;20062;-84
2023/03/04 01:59:25;;;;;;;35.95;14.15;;;;;;;-4.30;100.00;98611.09;2539348;29;20123;-85
2023/03/04 02:00:41;;;;;;;36.50;13.35;;;;;;;-4.36;100.00;98606.66;2509318;29;20576;-81
2023/03/04 02:02:00;;;;;;;32.92;13.90;;;;;;;-4.62;100.00;98618.50;2509986;29;20144;-84
2023/03/04 02:03:18;;;;;;;36.25;14.50;;;;;;;-4.61;100.00;98607.44;2539877;29;20142;-84
2023/03/04 02:04:34;;;;;;;39.15;13.75;;;;;;;-4.49;100.00;98602.78;2551320;29;20494;-82
2023/03/04 02:05:52;;;;;;;42.80;14.65;;;;;;;-4.47;100.00;98603.72;2550609;29;20170;-83
2023/03/04 02:07:08;;;;;;;35.78;14.50;;;;;;;-4.50;100.00;98606.16;2540419;29;20091;-85
2023/03/04 02:08:24;;;;;;;36.70;13.73;;;;;;;-4.55;100.00;98600.88;2543197;29;20051;-83
2023/03/04 02:09:39;;;;;;;35.58;13.60;;;;;;;-4.56;100.00;98601.69;2551401;29;20142;-82
2023/03/04 02:10:55;;;;;;;35.08;13.95;;;;;;;-4.56;100.00;98599.13;2550303;29;20085;-83
2023/03/04 02:12:11;;;;;;;36.15;13.70;;;;;;;-4.66;100.00;98601.31;2550480;29;20094;-83
2023/03/04 02:13:26;;;;;;;34.30;13.85;;;;;;;-4.78;100.00;98594.09;2550153;29;20463;-83
2023/03/04 02:14:42;;;;;;;34.67;14.40;;;;;;;-4.86;100.00;98589.56;2551370;29;20553;-83
2023/03/04 02:15:58;;;;;;;31.48;13.07;;;;;;;-4.74;100.00;98589.16;2551181;29;20467;-82
2023/03/04 02:17:14;;;;;;;33.20;13.98;;;;;;;-4.69;100.00;98579.97;2550270;29;20048;-82
2023/03/04 02:18:29;;;;;;;31.80;12.70;;;;;;;-4.80;100.00;98593.19;2550544;29;20056;-83
2023/03/04 02:19:55;;;;;;;30.42;12.65;;;;;;;-4.89;100.00;98584.38;2550697;29;20051;-85
2023/03/04 02:21:19;;;;;;;33.60;12.48;;;;;;;-4.96;100.00;98588.38;2550755;29;20044;-83
2023/03/04 02:22:42;;;;;;;37.25;12.55;;;;;;;-5.11;100.00;98582.72;2550051;29;20059;-82
2023/03/04 02:24:14;;;;;;;30.98;11.90;;;;;;;-4.87;100.00;98576.78;2549704;29;20051;-83
2023/03/04 02:25:46;;;;;;;40.03;13.43;;;;;;;-4.99;100.00;98575.50;2550185;29;20063;-83
2023/03/04 02:27:02;;;;;;;30.77;11.45;;;;;;;-5.04;100.00;98573.59;2550549;29;20070;-83
2023/03/04 02:28:17;;;;;;;26.50;11.63;;;;;;;-4.89;100.00;98574.16;2550053;29;20050;-82
2023/03/04 02:29:33;;;;;;;29.98;11.50;;;;;;;-4.77;100.00;98568.59;2550582;28;20048;-83
2023/03/04 02:30:49;;;;;;;33.80;12.13;;;;;;;-4.94;100.00;98572.25;2550678;28;20466;-82
2023/03/04 02:32:05;;;;;;;29.98;11.82;;;;;;;-5.07;100.00;98574.34;2551806;29;20142;-82
2023/03/04 02:33:20;;;;;;;33.15;10.98;;;;;;;-4.84;100.00;98570.06;2549897;29;20078;-85
2023/03/04 02:34:39;;;;;;;29.75;11.10;;;;;;;-4.88;100.00;98565.66;2550548;28;20055;-83
2023/03/04 02:35:54;;;;;;;34.63;12.55;;;;;;;-4.91;100.00;98574.91;2551554;29;20509;-82
2023/03/04 02:37:10;;;;;;;31.85;10.90;;;;;;;-5.12;100.00;98573.31;2550858;29;20071;-83
2023/03/04 02:38:26;;;;;;;21.90;9.50;;;;;;;-5.22;100.00;98572.13;2549869;29;20996;-82
2023/03/04 02:39:44;;;;;;;28.55;10.90;;;;;;;-5.08;100.00;98571.75;2553381;29;20162;-88
2023/03/04 02:41:00;;;;;;;33.53;11.88;;;;;;;-5.02;100.00;98571.97;2552853;29;20048;-81
2023/03/04 02:42:17;;;;;;;33.95;13.15;;;;;;;-4.96;100.00;98567.97;2551799;29;20052;-83
2023/03/04 02:43:33;;;;;;;23.13;9.85;;;;;;;-5.00;100.00;98563.56;2551885;29;20505;-83
2023/03/04 02:44:49;;;;;;;29.48;12.60;;;;;;;-4.63;100.00;98561.44;2552211;29;20048;-82
2023/03/04 02:46:04;;;;;;;33.03;12.63;;;;;;;-4.51;100.00;98560.13;2552646;29;20052;-83
2023/03/04 02:47:20;;;;;;;28.85;11.07;;;;;;;-4.53;100.00;98560.06;2552072;28;20062;-83
2023/03/04 02:48:36;;;;;;;27.98;11.50;;;;;;;-4.45;100.00;98561.19;2552965;29;20062;-83
2023/03/04 02:49:51;;;;;;;29.60;12.23;;;;;;;-4.58;100.00;98557.34;2551820;28;20055;-84
2023/03/04 02:51:07;;;;;;;33.05;11.73;;;;;;;-4.46;100.00;98559.47;2552458;29;20103;-83
2023/03/04 02:52:25;;;;;;;29.45;11.95;;;;;;;-4.30;100.00;98559.97;2551758;29;20059;-84
2023/03/04 02:53:41;;;;;;;29.80;10.82;;;;;;;-4.26;100.00;98557.56;2552418;29;20134;-83
2023/03/04 02:54:56;;;;;;;32.00;11.95;;;;;;;-4.28;100.00;98558.34;2551579;29;20531;-85
2023/03/04 02:56:12;;;;;;;27.05;11.50;;;;;;;-4.30;100.00;98559.97;2542318;29;20056;-83
2023/03/04 02:57:27;;;;;;;28.38;12.02;;;;;;;-4.46;100.00;98559.47;2545267;29;20055;-83
2023/03/04 02:58:43;;;;;;;32.70;11.38;;;;;;;-4.69;100.00;98559.53;2540982;29;20048;-83
2023/03/04 02:59:58;;;;;;;27.08;11.05;;;;;;;-4.85;100.00;98562.38;2544662;29;20423;-83
2023/03/04 03:01:14;;;;;;;27.52;11.10;;;;;;;-5.12;100.00;98560.56;2551866;29;20047;-83
2023/03/04 03:02:29;;;;;;;27.48;11.10;;;;;;;-5.02;100.00;98556.66;2552219;28;20051;-82
2023/03/04 03:03:45;;;;;;;32.42;11.82;;;;;;;-5.07;100.00;98553.06;2552676;29;20051;-84
2023/03/04 03:05:01;;;;;;;29.63;11.05;;;;;;;-5.08;100.00;98559.00;2553366;29;20406;-87
2023/03/04 03:06:16;;;;;;;30.15;11.07;;;;;;;-5.09;100.00;98558.13;2551888;28;20244;-84
2023/03/04 03:07:33;;;;;;;24.08;9.90;;;;;;;-5.10;100.00;98558.94;2551674;29;20114;-83
2023/03/04 03:08:49;;;;;;;27.83;10.65;;;;;;;-5.25;100.00;98555.00;2551310;29;20487;-83
2023/03/04 03:10:05;;;;;;;29.55;10.43;;;;;;;-5.23;100.00;98551.63;2551378;29;20047;-82
2023/03/04 03:11:21;;;;;;;28.25;10.88;;;;;;;-5.32;100.00;98554.72;2551965;29;20055;-82
2023/03/04 03:12:36;;;;;;;27.23;10.55;;;;;;;-5.39;100.00;98556.19;2551382;29;20052;-83
2023/03/04 03:13:52;;;;;;;27.08;10.45;;;;;;;-5.29;100.00;98555.72;2552861;29;20063;-83
2023/03/04 03:15:08;;;;;;;27.02;11.27;;;;;;;-5.26;100.00;98554.94;2553454;28;20106;-88
2023/03/04 03:16:23;;;;;;;28.98;11.07;;;;;;;-5.53;100.00;98551.41;2551424;29;20055;-83
2023/03/04 03:17:39;;;;;;;25.73;10.73;;;;;;;-5.64;100.00;98551.84;2552714;28;20487;-82
2023/03/04 03:18:55;;;;;;;27.40;10.25;;;;;;;-5.64;100.00;98550.13;2552677;28;20054;-83
2023/03/04 03:20:12;;;;;;;26.58;10.68;;;;;;;-5.37;100.00;98546.88;2551079;29;20055;-83
2023/03/04 03:21:28;;;;;;;24.50;10.65;;;;;;;-5.02;100.00;98544.78;2552299;29;20130;-83
2023/03/04 03:22:43;;;;;;;27.52;10.93;;;;;;;-5.46;100.00;98552.53;2552177;29;20051;-82
2023/03/04 03:23:59;;;;;;;31.33;11.13;;;;;;;-5.44;100.00;98550.91;2551364;29;20055;-83
2023/03/04 03:25:16;;;;;;;22.58;8.82;;;;;;;-5.49;100.00;98549.88;2551153;29;20055;-83
2023/03/04 03:26:31;;;;;;;29.20;10.20;;;;;;;-5.47;100.00;98549.91;2552416;29;20058;-86
2023/03/04 03:27:47;;;;;;;22.38;9.40;;;;;;;-5.48;100.00;98553.28;2552029;29;20513;-87
2023/03/04 03:29:02;;;;;;;22.63;9.70;;;;;;;-5.37;100.00;98548.59;2553284;29;20063;-83
2023/03/04 03:30:18;;;;;;;31.13;11.23;;;;;;;-5.30;100.00;98553.09;2550580;29;20055;-83
2023/03/04 03:31:33;;;;;;;23.58;9.10;;;;;;;-5.39;100.00;98551.94;2552607;28;20524;-83
2023/03/04 03:32:49;;;;;;;25.55;10.43;;;;;;;-5.53;100.00;98548.88;2551856;29;20051;-84
2023/03/04 03:34:05;;;;;;;28.88;9.55;;;;;;;-5.45;100.00;98546.59;2551424;28;20101;-83
2023/03/04 03:35:20;;;;;;;25.23;10.07;;;;;;;-5.39;100.00;98545.97;2552501;29;20401;-87
2023/03/04 03:36:36;;;;;;;26.02;10.23;;;;;;;-5.30;100.00;98550.53;2550661;29;20090;-84
2023/03/04 03:37:51;;;;;;;31.27;11.27;;;;;;;-5.27;100.00;98538.78;2551680;29;20750;-84
2023/03/04 03:39:07;;;;;;;30.55;11.45;;;;;;;-5.18;100.00;98539.91;2551622;29;20464;-83
2023/03/04 03:40:23;;;;;;;24.17;10.45;;;;;;;-5.15;100.00;98540.88;2551373;29;20266;-87
2023/03/04 03:41:38;;;;;;;30.80;10.80;;;;;;;-5.07;100.00;98533.50;2551211;29;20059;-84
2023/03/04 03:42:54;;;;;;;32.97;11.45;;;;;;;-5.13;100.00;98534.16;2552865;29;20073;-84
2023/03/04 03:44:09;;;;;;;29.85;10.93;;;;;;;-5.04;100.00;98530.19;2552333;29;20055;-83
2023/03/04 03:45:25;;;;;;;26.63;10.63;;;;;;;-5.14;100.00;98537.50;2551289;29;20054;-84
2023/03/04 03:46:40;;;;;;;26.73;10.65;;;;;;;-5.14;100.00;98534.13;2553312;29;20502;-82
2023/03/04 03:47:56;;;;;;;27.00;11.38;;;;;;;-5.14;100.00;98540.06;2552694;29;20055;-82
2023/03/04 03:49:12;;;;;;;28.27;9.65;;;;;;;-5.30;100.00;98542.88;2553474;28;20059;-82
2023/03/04 03:50:28;;;;;;;23.33;9.52;;;;;;;-5.35;100.00;98540.16;2552483;28;20087;-84
2023/03/04 03:51:44;;;;;;;27.05;10.85;;;;;;;-5.49;100.00;98539.66;2551611;29;20070;-84
2023/03/04 03:52:59;;;;;;;24.75;8.82;;;;;;;-5.73;100.00;98535.34;2552304;29;20051;-84
2023/03/04 03:54:15;;;;;;;28.05;9.73;;;;;;;-5.59;100.00;98535.88;2541099;29;20503;-85
2023/03/04 03:55:31;;;;;;;23.85;9.63;;;;;;;-5.60;100.00;98539.22;2546424;29;20646;-85
2023/03/04 03:56:46;;;;;;;26.45;10.27;;;;;;;-5.44;100.00;98543.25;2550472;29;20067;-88
2023/03/04 03:58:02;;;;;;;32.05;10.82;;;;;;;-5.47;100.00;98543.13;2549960;29;20085;-84
2023/03/04 03:59:18;;;;;;;27.35;9.98;;;;;;;-5.61;100.00;98542.59;2551211;29;20055;-85
2023/03/04 04:00:33;;;;;;;24.27;10.20;;;;;;;-5.70;100.00;98539.72;2551069;29;20097;-86
2023/03/04 04:01:49;;;;;;;25.10;11.20;;;;;;;-5.49;100.00;98544.75;2551993;29;20071;-85
2023/03/04 04:03:05;;;;;;;22.90;10.23;;;;;;;-5.43;100.00;98544.97;2551638;29;20055;-85
2023/03/04 04:04:21;;;;;;;25.10;9.98;;;;;;;-5.55;100.00;98544.50;2550699;29;20043;-84
2023/03/04 04:05:37;;;;;;;28.33;10.10;;;;;;;-5.43;100.00;98529.66;2551027;29;20052;-82
2023/03/04 04:06:53;;;;;;;27.77;10.02;;;;;;;-5.20;100.00;98531.31;2550549;29;20051;-83
2023/03/04 04:08:13;;;;;;;31.83;11.70;;;;;;;-5.12;100.00;98535.03;2551178;29;20062;-85
2023/03/04 04:09:29;;;;;;;26.83;10.35;;;;;;;-5.13;100.00;98535.84;2550232;29;20047;-82
2023/03/04 04:10:44;;;;;;;24.52;9.30;;;;;;;-5.18;100.00;98529.69;2551450;29;20048;-82
2023/03/04 04:12:00;;;;;;;23.13;10.57;;;;;;;-5.11;100.00;98531.66;2551196;29;20051;-85
2023/03/04 04:13:15;;;;;;;24.30;10.70;;;;;;;-5.01;100.00;98532.84;2551154;29;20051;-83
2023/03/04 04:14:32;;;;;;;28.00;10.75;;;;;;;-4.93;100.00;98539.13;2552181;29;20059;-83
2023/03/04 04:15:47;;;;;;;26.80;10.52;;;;;;;-5.01;100.00;98536.28;2550282;29;20051;-83
2023/03/04 04:17:03;;;;;;;25.15;9.50;;;;;;;-5.22;100.00;98540.59;2550104;29;20570;-84
2023/03/04 04:18:18;;;;;;;28.77;11.00;;;;;;;-5.06;100.00;98537.78;2551888;29;20087;-84
2023/03/04 04:19:34;;;;;;;31.30;10.85;;;;;;;-5.33;100.00;98545.34;2551124;29;20059;-83
2023/03/04 04:20:51;;;;;;;29.95;11.43;;;;;;;-5.48;100.00;98540.50;2550761;29;20048;-83
2023/03/04 04:22:14;;;;;;;25.05;10.43;;;;;;;-5.54;100.00;98541.16;2552607;29;20178;-84
2023/03/04 04:23:30;;;;;;;23.77;10.02;;;;;;;-5.41;100.00;98532.28;2550080;29;20052;-84
2023/03/04 04:24:46;;;;;;;24.33;10.15;;;;;;;-5.33;100.00;98540.22;2551009;29;20170;-83
2023/03/04 04:26:02;;;;;;;33.20;11.52;;;;;;;-5.55;100.00;98536.84;2553218;29;20607;-84
2023/03/04 04:27:17;;;;;;;21.17;9.45;;;;;;;-5.79;100.00;98540.22;2551566;29;20652;-85
2023/03/04 04:28:33;;;;;;;32.10;10.50;;;;;;;-5.85;100.00;98537.44;2552002;29;20418;-84
2023/03/04 04:29:49;;;;;;;28.80;11.35;;;;;;;-5.67;100.00;98539.81;2552128;29;20059;-84
2023/03/04 04:31:08;;;;;;;29.17;10.68;;;;;;;-5.79;100.00;98539.34;2552815;29;20051;-83
2023/03/04 04:32:24;;;;;;;23.40;10.02;;;;;;;-5.64;100.00;98539.09;2552380;29;20047;-83
2023/03/04 04:33:39;;;;;;;24.98;9.70;;;;;;;-5.89;100.00;98540.69;2551504;29;20465;-84
2023/03/04 04:34:55;;;;;;;22.35;9.40;;;;;;;-5.96;100.00;98537.03;2551249;28;20510;-83
2023/03/04 04:36:15;;;;;;;29.77;10.27;;;;;;;-5.71;100.00;98535.44;2552004;29;20092;-83
2023/03/04 04:37:31;;;;;;;29.85;9.95;;;;;;;-5.94;100.00;98543.03;2550627;29;20055;-83
2023/03/04 04:38:48;;;;;;;26.55;9.73;;;;;;;-6.02;100.00;98539.34;2551824;29;20051;-83
2023/03/04 04:40:04;;;;;;;28.15;10.30;;;;;;;-5.99;100.00;98539.47;2539619;29;20056;-84
2023/03/04 04:41:37;;;;;;;28.33;10.77;;;;;;;-5.84;100.00;98542.59;2546135;29;20075;-83
2023/03/04 04:42:52;;;;;;;29.85;10.70;;;;;;;-5.86;100.00;98551.00;2550426;29;20536;-85
2023/03/04 04:44:09;;;;;;;28.70;11.15;;;;;;;-5.81;100.00;98537.63;2551354;29;20067;-84
2023/03/04 04:45:25;;;;;;;31.98;11.15;;;;;;;-5.77;100.00;98548.81;2551491;29;20055;-83
2023/03/04 04:46:41;;;;;;;29.27;11.15;;;;;;;-5.95;100.00;98549.81;2550295;29;20048;-83
2023/03/04 04:47:57;;;;;;;25.88;9.70;;;;;;;-5.83;100.00;98544.34;2552087;29;20497;-83
2023/03/04 04:49:13;;;;;;;22.45;9.00;;;;;;;-5.86;100.00;98546.78;2551422;28;20059;-83
2023/03/04 04:50:28;;;;;;;30.58;11.55;;;;;;;-5.92;100.00;98543.13;2550242;29;20056;-84
2023/03/04 04:51:44;;;;;;;29.83;10.77;;;;;;;-5.73;100.00;98544.66;2551410;29;20055;-85
2023/03/04 04:53:00;;;;;;;26.00;9.90;;;;;;;-5.46;100.00;98547.41;2549964;29;20093;-83
2023/03/04 04:54:16;;;;;;;27.60;10.68;;;;;;;-5.43;100.00;98546.69;2550664;29;20479;-83
2023/03/04 04:55:33;;;;;;;30.10;10.32;;;;;;;-5.41;100.00;98550.16;2550356;29;20058;-83
2023/03/04 04:56:49;;;;;;;31.83;11.02;;;;;;;-5.51;100.00;98545.50;2549812;28;20051;-83
2023/03/04 04:58:06;;;;;;;29.23;10.55;;;;;;;-5.51;100.00;98550.59;2550136;29;20048;-84
2023/03/04 04:59:22;;;;;;;31.52;11.25;;;;;;;-5.56;100.00;98550.44;2550404;29;20061;-84
2023/03/04 05:00:37;;;;;;;28.17;10.70;;;;;;;-5.62;100.00;98552.75;2550721;29;20106;-85
2023/03/04 05:01:53;;;;;;;35.15;11.98;;;;;;;-5.61;100.00;98550.25;2551103;28;20054;-83
2023/03/04 05:03:08;;;;;;;29.52;10.52;;;;;;;-5.45;100.00;98549.16;2549798;29;20050;-83
2023/03/04 05:04:24;;;;;;;26.48;11.15;;;;;;;-5.11;100.00;98541.88;2551229;28;20925;-82
2023/03/04 05:05:40;;;;;;;31.48;11.30;;;;;;;-5.10;100.00;98548.72;2550956;29;20402;-83
2023/03/04 05:06:55;;;;;;;27.73;10.65;;;;;;;-4.90;100.00;98546.00;2552369;29;20071;-83
2023/03/04 05:08:11;;;;;;;25.70;10.15;;;;;;;-4.98;100.00;98546.59;2550394;29;20134;-83
2023/03/04 05:09:27;;;;;;;26.48;11.82;;;;;;;-4.96;100.00;98546.66;2549219;29;20114;-84
2023/03/04 05:10:42;;;;;;;30.13;11.63;;;;;;;-4.92;100.00;98550.19;2550849;29;20056;-84
2023/03/04 05:11:58;;;;;;;27.35;11.27;;;;;;;-5.05;100.00;98551.44;2539661;29;20063;-83
2023/03/04 05:13:13;;;;;;;27.33;10.75;;;;;;;-5.37;100.00;98558.78;2534665;29;20122;-84
2023/03/04 05:14:29;;;;;;;28.38;11.60;;;;;;;-5.25;100.00;98561.78;2545463;29;20422;-83
2023/03/04 05:15:45;;;;;;;27.02;10.60;;;;;;;-5.33;100.00;98558.09;2550777;29;20059;-83
2023/03/04 05:17:01;;;;;;;24.13;9.75;;;;;;;-5.13;100.00;98543.50;2549855;29;20047;-83
2023/03/04 05:18:16;;;;;;;30.45;11.10;;;;;;;-5.19;100.00;98559.47;2551767;29;20366;-83
2023/03/04 05:19:32;;;;;;;25.50;10.63;;;;;;;-5.12;100.00;98556.31;2549588;29;20126;-86
2023/03/04 05:20:52;;;;;;;27.45;11.10;;;;;;;-4.97;100.00;98552.56;2550202;29;20074;-84
2023/03/04 05:22:07;;;;;;;27.88;10.32;;;;;;;-4.97;100.00;98556.00;2551470;29;20134;-83
2023/03/04 05:23:24;;;;;;;25.88;10.77;;;;;;;-5.02;100.00;98561.75;2550675;29;20066;-82
2023/03/04 05:24:39;;;;;;;38.33;12.55;;;;;;;-5.21;100.00;98566.19;2550892;29;20055;-84
2023/03/04 05:25:55;;;;;;;26.67;11.55;;;;;;;-5.44;100.00;98568.75;2549983;29;20054;-85
2023/03/04 05:27:11;;;;;;;26.35;10.80;;;;;;;-5.62;100.00;98570.63;2550019;29;20102;-85
2023/03/04 05:28:27;;;;;;;31.95;12.40;;;;;;;-5.73;100.00;98562.53;2549451;29;20052;-83
2023/03/04 05:29:45;;;;;;;31.73;11.90;;;;;;;-5.72;100.00;98567.69;2550241;29;20083;-84
2023/03/04 05:31:02;;;;;;;27.65;11.18;;;;;;;-5.65;100.00;98563.72;2549669;29;20460;-84
2023/03/04 05:32:17;;;;;;;26.55;11.02;;;;;;;-5.55;100.00;98570.91;2550994;29;20185;-82
2023/03/04 05:33:33;;;;;;;28.38;10.65;;;;;;;-5.55;100.00;98570.91;2551880;29;20066;-86
2023/03/04 05:34:49;;;;;;;24.63;10.13;;;;;;;-5.46;100.00;98569.50;2549889;29;20058;-82
2023/03/04 05:36:06;;;;;;;29.45;11.10;;;;;;;-5.43;100.00;98569.63;2549801;29;20067;-86
2023/03/04 05:37:22;;;;;;;28.85;10.60;;;;;;;-5.51;100.00;98571.91;2540421;29;20047;-84
2023/03/04 05:38:38;;;;;;;32.58;11.63;;;;;;;-5.50;100.00;98571.09;2543242;29;20074;-84
2023/03/04 05:39:53;;;;;;;28.95;12.05;;;;;;;-5.45;100.00;98573.78;2551338;29;20051;-84
2023/03/04 05:41:09;;;;;;;25.67;10.57;;;;;;;-5.56;100.00;98581.94;2549745;29;20047;-84
2023/03/04 05:42:24;;;;;;;25.52;10.25;;;;;;;-5.98;100.00;98579.44;2550492;29;20098;-87
2023/03/04 05:43:41;;;;;;;22.73;9.45;;;;;;;-6.21;100.00;98586.19;2549321;29;20414;-82
2023/03/04 05:44:57;;;;;;;23.80;9.57;;;;;;;-6.32;100.00;98583.16;2550583;29;20437;-82
2023/03/04 05:46:15;;;;;;;32.97;11.95;;;;;;;-6.23;100.00;98583.56;2540461;29;20076;-84
2023/03/04 05:47:30;;;;;;;33.00;11.80;;;;;;;-5.82;100.00;98581.78;2544719;29;20479;-84